sensor_id;sensor_type;location;lat;lon;timestamp;temperature;humidity
53645;DHT22;39547;45.554;12.068;2022-11-21T00:02:39;8.20;86.10
53645;DHT22;39547;45.554;12.068;2022-11-21T00:08:41;8.20;85.80
53645;DHT22;39547;45.554;12.068;2022-11-21T00:14:42;8.20;86.00
53645;DHT22;39547;45.554;12.068;2022-11-21T00:20:44;8.20;85.80
53645;DHT22;39547;45.554;12.068;2022-11-21T00:26:46;8.20;85.80
53645;DHT22;39547;45.554;12.068;2022-11-21T00:32:47;8.20;85.90
53645;DHT22;39547;45.554;12.068;2022-11-21T00:38:49;8.10;85.90
53645;DHT22;39547;45.554;12.068;2022-11-21T00:44:50;8.00;85.80
53645;DHT22;39547;45.554;12.068;2022-11-21T00:50:52;8.00;85.90
53645;DHT22;39547;45.554;12.068;2022-11-21T00:56:53;7.90;86.00
53645;DHT22;39547;45.554;12.068;2022-11-21T01:02:54;7.90;86.20
53645;DHT22;39547;45.554;12.068;2022-11-21T01:08:56;8.00;86.00
53645;DHT22;39547;45.554;12.068;2022-11-21T01:14:57;8.00;86.10
53645;DHT22;39547;45.554;12.068;2022-11-21T01:21:10;8.10;86.20
53645;DHT22;39547;45.554;12.068;2022-11-21T01:27:12;8.10;85.90
53645;DHT22;39547;45.554;12.068;2022-11-21T01:33:14;8.10;86.10
53645;DHT22;39547;45.554;12.068;2022-11-21T01:39:15;8.10;86.10
53645;DHT22;39547;45.554;12.068;2022-11-21T01:52:24;8.20;86.00
53645;DHT22;39547;45.554;12.068;2022-11-21T01:58:30;8.20;85.80
53645;DHT22;39547;45.554;12.068;2022-11-21T02:04:35;8.20;85.90
53645;DHT22;39547;45.554;12.068;2022-11-21T02:10:40;8.20;85.50
53645;DHT22;39547;45.554;12.068;2022-11-21T02:16:45;8.10;85.40
53645;DHT22;39547;45.554;12.068;2022-11-21T02:29:18;8.00;85.60
53645;DHT22;39547;45.554;12.068;2022-11-21T02:35:20;8.00;85.70
53645;DHT22;39547;45.554;12.068;2022-11-21T02:41:22;7.90;85.80
53645;DHT22;39547;45.554;12.068;2022-11-21T02:47:27;7.90;85.90
53645;DHT22;39547;45.554;12.068;2022-11-21T02:53:29;7.80;85.70
53645;DHT22;39547;45.554;12.068;2022-11-21T02:59:30;7.70;86.00
53645;DHT22;39547;45.554;12.068;2022-11-21T03:05:32;7.70;86.00
53645;DHT22;39547;45.554;12.068;2022-11-21T03:11:33;7.70;86.10
53645;DHT22;39547;45.554;12.068;2022-11-21T03:17:35;7.70;86.10
53645;DHT22;39547;45.554;12.068;2022-11-21T03:23:37;7.70;86.00
53645;DHT22;39547;45.554;12.068;2022-11-21T03:29:38;7.70;86.00
53645;DHT22;39547;45.554;12.068;2022-11-21T03:35:40;7.50;85.90
53645;DHT22;39547;45.554;12.068;2022-11-21T03:41:41;7.50;86.20
53645;DHT22;39547;45.554;12.068;2022-11-21T03:47:42;7.40;86.20
53645;DHT22;39547;45.554;12.068;2022-11-21T03:53:44;7.30;86.30
53645;DHT22;39547;45.554;12.068;2022-11-21T03:59:46;7.20;86.30
53645;DHT22;39547;45.554;12.068;2022-11-21T04:05:48;7.20;86.30
53645;DHT22;39547;45.554;12.068;2022-11-21T04:11:49;7.20;86.40
53645;DHT22;39547;45.554;12.068;2022-11-21T04:17:50;7.10;86.30
53645;DHT22;39547;45.554;12.068;2022-11-21T04:23:53;7.00;86.30
53645;DHT22;39547;45.554;12.068;2022-11-21T04:29:54;6.90;86.50
53645;DHT22;39547;45.554;12.068;2022-11-21T04:35:56;6.90;86.50
53645;DHT22;39547;45.554;12.068;2022-11-21T04:41:57;6.80;86.60
53645;DHT22;39547;45.554;12.068;2022-11-21T04:47:58;6.70;86.60
53645;DHT22;39547;45.554;12.068;2022-11-21T04:54:00;6.80;86.70
53645;DHT22;39547;45.554;12.068;2022-11-21T05:00:01;6.70;86.70
53645;DHT22;39547;45.554;12.068;2022-11-21T05:06:03;6.70;86.70
53645;DHT22;39547;45.554;12.068;2022-11-21T05:12:05;6.60;86.70
53645;DHT22;39547;45.554;12.068;2022-11-21T05:18:25;6.60;86.90
53645;DHT22;39547;45.554;12.068;2022-11-21T05:24:26;6.60;86.90
53645;DHT22;39547;45.554;12.068;2022-11-21T05:30:28;6.50;86.90
53645;DHT22;39547;45.554;12.068;2022-11-21T05:36:51;6.50;86.90
53645;DHT22;39547;45.554;12.068;2022-11-21T05:42:57;6.50;87.10
53645;DHT22;39547;45.554;12.068;2022-11-21T05:49:18;6.40;87.00
53645;DHT22;39547;45.554;12.068;2022-11-21T05:55:19;6.40;87.00
53645;DHT22;39547;45.554;12.068;2022-11-21T06:01:21;6.40;87.10
53645;DHT22;39547;45.554;12.068;2022-11-21T06:07:41;6.40;87.20
53645;DHT22;39547;45.554;12.068;2022-11-21T06:13:42;6.40;87.30
53645;DHT22;39547;45.554;12.068;2022-11-21T06:19:44;6.40;87.20
53645;DHT22;39547;45.554;12.068;2022-11-21T06:25:46;6.40;87.00
53645;DHT22;39547;45.554;12.068;2022-11-21T06:31:47;6.30;87.00
53645;DHT22;39547;45.554;12.068;2022-11-21T06:37:48;6.20;86.50
53645;DHT22;39547;45.554;12.068;2022-11-21T06:43:50;6.20;86.90
53645;DHT22;39547;45.554;12.068;2022-11-21T06:49:52;6.20;87.00
53645;DHT22;39547;45.554;12.068;2022-11-21T06:55:57;6.20;86.90
53645;DHT22;39547;45.554;12.068;2022-11-21T07:01:59;6.20;87.20
53645;DHT22;39547;45.554;12.068;2022-11-21T07:08:02;6.20;87.40
53645;DHT22;39547;45.554;12.068;2022-11-21T07:14:03;6.30;87.40
53645;DHT22;39547;45.554;12.068;2022-11-21T07:20:05;6.30;87.50
53645;DHT22;39547;45.554;12.068;2022-11-21T07:26:08;6.50;87.60
53645;DHT22;39547;45.554;12.068;2022-11-21T07:32:10;6.60;87.70
53645;DHT22;39547;45.554;12.068;2022-11-21T07:38:12;6.70;87.30
53645;DHT22;39547;45.554;12.068;2022-11-21T07:44:13;6.70;87.50
53645;DHT22;39547;45.554;12.068;2022-11-21T07:50:15;6.80;87.30
53645;DHT22;39547;45.554;12.068;2022-11-21T07:56:16;6.90;87.60
53645;DHT22;39547;45.554;12.068;2022-11-21T08:02:25;6.90;87.30
53645;DHT22;39547;45.554;12.068;2022-11-21T08:08:27;7.00;87.50
53645;DHT22;39547;45.554;12.068;2022-11-21T08:14:28;7.10;87.50
53645;DHT22;39547;45.554;12.068;2022-11-21T08:20:29;7.30;87.60
53645;DHT22;39547;45.554;12.068;2022-11-21T08:26:31;7.50;87.80
53645;DHT22;39547;45.554;12.068;2022-11-21T08:32:33;7.70;87.90
53645;DHT22;39547;45.554;12.068;2022-11-21T08:38:34;8.00;87.70
53645;DHT22;39547;45.554;12.068;2022-11-21T08:44:36;8.20;87.60
53645;DHT22;39547;45.554;12.068;2022-11-21T08:50:37;8.40;87.70
53645;DHT22;39547;45.554;12.068;2022-11-21T08:56:39;8.70;87.70
53645;DHT22;39547;45.554;12.068;2022-11-21T09:02:41;8.90;87.50
53645;DHT22;39547;45.554;12.068;2022-11-21T09:08:42;9.00;87.20
53645;DHT22;39547;45.554;12.068;2022-11-21T09:14:44;9.20;86.30
53645;DHT22;39547;45.554;12.068;2022-11-21T09:21:03;9.20;87.00
53645;DHT22;39547;45.554;12.068;2022-11-21T09:27:05;9.20;86.70
53645;DHT22;39547;45.554;12.068;2022-11-21T09:33:11;9.20;86.60
53645;DHT22;39547;45.554;12.068;2022-11-21T09:39:13;9.40;86.60
53645;DHT22;39547;45.554;12.068;2022-11-21T09:45:20;9.40;86.50
53645;DHT22;39547;45.554;12.068;2022-11-21T09:51:23;9.60;86.40
53645;DHT22;39547;45.554;12.068;2022-11-21T09:57:25;9.70;85.60
53645;DHT22;39547;45.554;12.068;2022-11-21T10:03:45;9.80;83.50
53645;DHT22;39547;45.554;12.068;2022-11-21T10:35:42;10.60;81.10
53645;DHT22;39547;45.554;12.068;2022-11-21T10:41:50;10.70;82.40
53645;DHT22;39547;45.554;12.068;2022-11-21T10:47:53;10.90;82.90
53645;DHT22;39547;45.554;12.068;2022-11-21T10:54:06;11.00;82.80
53645;DHT22;39547;45.554;12.068;2022-11-21T11:00:28;11.20;82.50
53645;DHT22;39547;45.554;12.068;2022-11-21T11:06:48;11.20;82.10
53645;DHT22;39547;45.554;12.068;2022-11-21T11:12:50;11.30;80.00
53645;DHT22;39547;45.554;12.068;2022-11-21T11:25:14;11.50;77.10
53645;DHT22;39547;45.554;12.068;2022-11-21T11:31:16;11.50;79.50
53645;DHT22;39547;45.554;12.068;2022-11-21T11:37:39;11.70;80.40
53645;DHT22;39547;45.554;12.068;2022-11-21T11:44:05;11.80;79.70
53645;DHT22;39547;45.554;12.068;2022-11-21T11:50:35;11.90;80.00
53645;DHT22;39547;45.554;12.068;2022-11-21T11:56:38;12.00;78.40
53645;DHT22;39547;45.554;12.068;2022-11-21T12:03:10;12.00;76.00
53645;DHT22;39547;45.554;12.068;2022-11-21T12:09:44;12.10;79.10
53645;DHT22;39547;45.554;12.068;2022-11-21T12:15:50;12.10;74.30
53645;DHT22;39547;45.554;12.068;2022-11-21T12:21:55;12.20;78.30
53645;DHT22;39547;45.554;12.068;2022-11-21T12:27:57;12.30;78.20
53645;DHT22;39547;45.554;12.068;2022-11-21T12:40:28;12.60;79.00
53645;DHT22;39547;45.554;12.068;2022-11-21T12:52:41;12.70;78.00
53645;DHT22;39547;45.554;12.068;2022-11-21T12:59:03;12.70;77.40
53645;DHT22;39547;45.554;12.068;2022-11-21T13:05:10;12.70;78.30
53645;DHT22;39547;45.554;12.068;2022-11-21T13:23:46;12.50;78.50
53645;DHT22;39547;45.554;12.068;2022-11-21T13:42:28;11.70;80.40
53645;DHT22;39547;45.554;12.068;2022-11-21T13:49:07;11.60;80.80
53645;DHT22;39547;45.554;12.068;2022-11-21T14:08:27;11.60;81.60
53645;DHT22;39547;45.554;12.068;2022-11-21T14:20:56;11.70;82.00
53645;DHT22;39547;45.554;12.068;2022-11-21T14:26:58;11.70;81.70
53645;DHT22;39547;45.554;12.068;2022-11-21T14:33:37;11.70;81.60
53645;DHT22;39547;45.554;12.068;2022-11-21T14:39:39;11.60;81.80
53645;DHT22;39547;45.554;12.068;2022-11-21T14:45:48;11.60;81.90
53645;DHT22;39547;45.554;12.068;2022-11-21T14:52:16;11.50;82.00
53645;DHT22;39547;45.554;12.068;2022-11-21T14:58:19;11.40;81.90
53645;DHT22;39547;45.554;12.068;2022-11-21T15:04:26;11.20;82.00
53645;DHT22;39547;45.554;12.068;2022-11-21T15:10:31;11.10;82.30
53645;DHT22;39547;45.554;12.068;2022-11-21T15:16:33;10.90;82.60
53645;DHT22;39547;45.554;12.068;2022-11-21T15:22:36;10.80;82.60
53645;DHT22;39547;45.554;12.068;2022-11-21T15:28:56;10.70;82.80
53645;DHT22;39547;45.554;12.068;2022-11-21T15:34:58;10.50;83.20
53645;DHT22;39547;45.554;12.068;2022-11-21T15:47:10;10.30;83.70
53645;DHT22;39547;45.554;12.068;2022-11-21T15:53:17;10.20;84.00
53645;DHT22;39547;45.554;12.068;2022-11-21T15:59:19;10.10;84.30
53645;DHT22;39547;45.554;12.068;2022-11-21T16:05:21;9.90;84.40
53645;DHT22;39547;45.554;12.068;2022-11-21T16:11:36;9.90;84.60
53645;DHT22;39547;45.554;12.068;2022-11-21T16:17:38;9.80;84.80
53645;DHT22;39547;45.554;12.068;2022-11-21T16:23:41;9.70;84.90
53645;DHT22;39547;45.554;12.068;2022-11-21T16:29:42;9.70;85.10
53645;DHT22;39547;45.554;12.068;2022-11-21T16:35:44;9.70;85.10
53645;DHT22;39547;45.554;12.068;2022-11-21T16:41:45;9.60;85.30
53645;DHT22;39547;45.554;12.068;2022-11-21T16:47:49;9.60;85.60
53645;DHT22;39547;45.554;12.068;2022-11-21T16:53:50;9.60;85.70
53645;DHT22;39547;45.554;12.068;2022-11-21T16:59:52;9.50;85.80
53645;DHT22;39547;45.554;12.068;2022-11-21T17:05:57;9.50;85.90
53645;DHT22;39547;45.554;12.068;2022-11-21T17:11:59;9.50;85.90
53645;DHT22;39547;45.554;12.068;2022-11-21T17:18:00;9.40;86.00
53645;DHT22;39547;45.554;12.068;2022-11-21T17:24:02;9.40;86.10
53645;DHT22;39547;45.554;12.068;2022-11-21T17:30:04;9.30;86.20
53645;DHT22;39547;45.554;12.068;2022-11-21T17:36:10;9.20;86.30
53645;DHT22;39547;45.554;12.068;2022-11-21T17:42:11;9.20;86.40
53645;DHT22;39547;45.554;12.068;2022-11-21T17:48:13;9.20;86.50
53645;DHT22;39547;45.554;12.068;2022-11-21T17:54:14;9.20;86.50
53645;DHT22;39547;45.554;12.068;2022-11-21T18:00:16;9.20;86.60
53645;DHT22;39547;45.554;12.068;2022-11-21T18:06:38;9.20;86.70
53645;DHT22;39547;45.554;12.068;2022-11-21T18:12:40;9.00;86.70
53645;DHT22;39547;45.554;12.068;2022-11-21T18:18:41;9.00;86.80
53645;DHT22;39547;45.554;12.068;2022-11-21T18:24:43;9.00;86.90
53645;DHT22;39547;45.554;12.068;2022-11-21T18:30:45;8.90;87.00
53645;DHT22;39547;45.554;12.068;2022-11-21T18:37:05;8.90;87.00
53645;DHT22;39547;45.554;12.068;2022-11-21T18:43:06;8.80;87.10
53645;DHT22;39547;45.554;12.068;2022-11-21T18:49:08;8.90;87.10
53645;DHT22;39547;45.554;12.068;2022-11-21T18:55:10;8.90;87.10
53645;DHT22;39547;45.554;12.068;2022-11-21T19:01:21;8.80;87.20
53645;DHT22;39547;45.554;12.068;2022-11-21T19:07:23;8.90;87.20
53645;DHT22;39547;45.554;12.068;2022-11-21T19:13:24;8.90;87.30
53645;DHT22;39547;45.554;12.068;2022-11-21T19:19:28;8.90;87.10
53645;DHT22;39547;45.554;12.068;2022-11-21T19:25:30;8.90;87.20
53645;DHT22;39547;45.554;12.068;2022-11-21T19:31:31;8.90;87.00
53645;DHT22;39547;45.554;12.068;2022-11-21T19:37:33;9.00;87.20
53645;DHT22;39547;45.554;12.068;2022-11-21T19:43:35;9.00;86.90
53645;DHT22;39547;45.554;12.068;2022-11-21T19:49:36;9.20;86.70
53645;DHT22;39547;45.554;12.068;2022-11-21T19:55:38;9.10;86.50
53645;DHT22;39547;45.554;12.068;2022-11-21T20:01:39;9.20;86.30
53645;DHT22;39547;45.554;12.068;2022-11-21T20:07:41;9.20;86.40
53645;DHT22;39547;45.554;12.068;2022-11-21T20:13:44;9.20;86.50
53645;DHT22;39547;45.554;12.068;2022-11-21T20:19:46;9.20;86.60
53645;DHT22;39547;45.554;12.068;2022-11-21T20:25:49;9.20;86.60
53645;DHT22;39547;45.554;12.068;2022-11-21T20:31:51;9.20;86.20
53645;DHT22;39547;45.554;12.068;2022-11-21T20:37:52;9.20;86.70
53645;DHT22;39547;45.554;12.068;2022-11-21T20:43:55;9.20;86.60
53645;DHT22;39547;45.554;12.068;2022-11-21T20:49:56;9.30;86.40
53645;DHT22;39547;45.554;12.068;2022-11-21T20:56:05;9.20;86.10
53645;DHT22;39547;45.554;12.068;2022-11-21T21:02:08;9.30;86.50
53645;DHT22;39547;45.554;12.068;2022-11-21T21:08:12;9.30;85.70
53645;DHT22;39547;45.554;12.068;2022-11-21T21:14:13;9.40;85.50
53645;DHT22;39547;45.554;12.068;2022-11-21T21:20:15;9.40;85.40
53645;DHT22;39547;45.554;12.068;2022-11-21T21:26:19;9.50;85.50
53645;DHT22;39547;45.554;12.068;2022-11-21T21:32:21;9.50;85.10
53645;DHT22;39547;45.554;12.068;2022-11-21T21:38:22;9.50;84.80
53645;DHT22;39547;45.554;12.068;2022-11-21T21:44:23;9.50;84.30
53645;DHT22;39547;45.554;12.068;2022-11-21T21:50:25;9.30;84.20
53645;DHT22;39547;45.554;12.068;2022-11-21T21:56:27;9.10;85.40
53645;DHT22;39547;45.554;12.068;2022-11-21T22:02:29;8.90;86.30
53645;DHT22;39547;45.554;12.068;2022-11-21T22:08:32;8.70;86.90
53645;DHT22;39547;45.554;12.068;2022-11-21T22:14:33;8.70;87.20
53645;DHT22;39547;45.554;12.068;2022-11-21T22:20:35;8.60;87.30
53645;DHT22;39547;45.554;12.068;2022-11-21T22:26:37;8.50;87.50
53645;DHT22;39547;45.554;12.068;2022-11-21T22:32:39;8.50;88.10
53645;DHT22;39547;45.554;12.068;2022-11-21T22:38:40;8.50;88.30
53645;DHT22;39547;45.554;12.068;2022-11-21T22:44:42;8.50;88.30
53645;DHT22;39547;45.554;12.068;2022-11-21T22:50:44;8.40;88.20
53645;DHT22;39547;45.554;12.068;2022-11-21T22:56:46;8.40;88.30
53645;DHT22;39547;45.554;12.068;2022-11-21T23:02:47;8.50;88.60
53645;DHT22;39547;45.554;12.068;2022-11-21T23:08:50;8.50;88.70
53645;DHT22;39547;45.554;12.068;2022-11-21T23:14:51;8.50;88.60
53645;DHT22;39547;45.554;12.068;2022-11-21T23:20:53;8.60;88.60
53645;DHT22;39547;45.554;12.068;2022-11-21T23:26:55;8.60;88.80
53645;DHT22;39547;45.554;12.068;2022-11-21T23:32:56;8.70;88.60
53645;DHT22;39547;45.554;12.068;2022-11-21T23:38:57;8.70;88.60
53645;DHT22;39547;45.554;12.068;2022-11-21T23:44:59;8.80;88.20
53645;DHT22;39547;45.554;12.068;2022-11-21T23:51:00;8.80;88.50
53645;DHT22;39547;45.554;12.068;2022-11-21T23:57:02;8.80;88.50
